San Francisco, California
Traffic Map
Current Weather Conditions
San Francisco, California
Scattered Clouds
Scattered Clouds
10°
Feels Like: 10°
Wind Chill: 10° Ceiling: Unl
Heat Index: 10° Visibility: 10mi
Dew Point: Wind: 20mph
Humidity: 71% Direction: 290° (WNW)
Pressure: 30.32in Gusts: 28mph
Raw Report DataKSFO 250356Z 29017G24KT 10SM FEW019 SCT200 10/05 A3032 RMK AO2 PK WND 28031/0337 SLP266 T01000050 $
Traffic Incident Summary
Active as of:
Severity:
Category:
InformationThere was an issue retrieving the traffic information for this location. Please try a different location or try again shortly.
Advertisements